sensor_id;sensor_type;location;lat;lon;timestamp;temperature;humidity
7876;DHT22;69649;53.712;9.680;2024-01-30T00:01:20;3.70;72.20
7876;DHT22;69649;53.712;9.680;2024-01-30T00:03:46;3.70;72.20
7876;DHT22;69649;53.712;9.680;2024-01-30T00:06:12;3.70;72.10
7876;DHT22;69649;53.712;9.680;2024-01-30T00:08:38;3.70;72.10
7876;DHT22;69649;53.712;9.680;2024-01-30T00:11:04;3.70;72.10
7876;DHT22;69649;53.712;9.680;2024-01-30T00:13:29;3.70;72.10
7876;DHT22;69649;53.712;9.680;2024-01-30T00:15:55;3.60;72.10
7876;DHT22;69649;53.712;9.680;2024-01-30T00:18:21;3.60;72.10
7876;DHT22;69649;53.712;9.680;2024-01-30T00:20:47;3.60;71.90
7876;DHT22;69649;53.712;9.680;2024-01-30T00:23:13;3.60;71.80
7876;DHT22;69649;53.712;9.680;2024-01-30T00:25:38;3.60;71.80
7876;DHT22;69649;53.712;9.680;2024-01-30T00:28:04;3.60;71.60
7876;DHT22;69649;53.712;9.680;2024-01-30T00:30:30;3.60;71.60
7876;DHT22;69649;53.712;9.680;2024-01-30T00:32:56;3.60;71.80
7876;DHT22;69649;53.712;9.680;2024-01-30T00:35:22;3.60;72.10
7876;DHT22;69649;53.712;9.680;2024-01-30T00:37:48;3.60;72.20
7876;DHT22;69649;53.712;9.680;2024-01-30T00:40:14;3.70;72.80
7876;DHT22;69649;53.712;9.680;2024-01-30T00:42:42;3.70;72.80
7876;DHT22;69649;53.712;9.680;2024-01-30T00:45:14;3.70;72.70
7876;DHT22;69649;53.712;9.680;2024-01-30T00:47:40;3.70;72.70
7876;DHT22;69649;53.712;9.680;2024-01-30T00:50:06;3.60;72.80
7876;DHT22;69649;53.712;9.680;2024-01-30T00:52:32;3.70;73.30
7876;DHT22;69649;53.712;9.680;2024-01-30T00:54:59;3.70;74.60
7876;DHT22;69649;53.712;9.680;2024-01-30T00:57:25;3.60;76.20
7876;DHT22;69649;53.712;9.680;2024-01-30T00:59:51;3.70;76.70
7876;DHT22;69649;53.712;9.680;2024-01-30T01:02:16;3.70;76.30
7876;DHT22;69649;53.712;9.680;2024-01-30T01:04:45;3.70;76.60
7876;DHT22;69649;53.712;9.680;2024-01-30T01:07:11;3.80;77.20
7876;DHT22;69649;53.712;9.680;2024-01-30T01:09:37;3.90;77.70
7876;DHT22;69649;53.712;9.680;2024-01-30T01:12:04;3.90;77.50
7876;DHT22;69649;53.712;9.680;2024-01-30T01:14:30;4.00;77.20
7876;DHT22;69649;53.712;9.680;2024-01-30T01:16:56;4.00;77.40
7876;DHT22;69649;53.712;9.680;2024-01-30T01:19:21;4.10;77.20
7876;DHT22;69649;53.712;9.680;2024-01-30T01:21:48;4.20;77.00
7876;DHT22;69649;53.712;9.680;2024-01-30T01:24:13;4.20;77.00
7876;DHT22;69649;53.712;9.680;2024-01-30T01:26:39;4.30;76.80
7876;DHT22;69649;53.712;9.680;2024-01-30T01:29:06;4.40;76.60
7876;DHT22;69649;53.712;9.680;2024-01-30T01:31:34;4.40;76.50
7876;DHT22;69649;53.712;9.680;2024-01-30T01:33:59;4.50;76.30
7876;DHT22;69649;53.712;9.680;2024-01-30T01:36:25;4.50;76.00
7876;DHT22;69649;53.712;9.680;2024-01-30T01:38:51;4.60;75.80
7876;DHT22;69649;53.712;9.680;2024-01-30T01:41:17;4.70;75.50
7876;DHT22;69649;53.712;9.680;2024-01-30T01:43:42;4.70;75.30
7876;DHT22;69649;53.712;9.680;2024-01-30T01:46:08;4.80;75.00
7876;DHT22;69649;53.712;9.680;2024-01-30T01:48:34;4.90;75.00
7876;DHT22;69649;53.712;9.680;2024-01-30T01:51:00;4.90;74.60
7876;DHT22;69649;53.712;9.680;2024-01-30T01:53:26;4.90;74.60
7876;DHT22;69649;53.712;9.680;2024-01-30T01:55:52;4.90;74.40
7876;DHT22;69649;53.712;9.680;2024-01-30T01:58:19;4.90;74.30
7876;DHT22;69649;53.712;9.680;2024-01-30T02:00:46;4.90;74.50
7876;DHT22;69649;53.712;9.680;2024-01-30T02:03:13;4.90;74.40
7876;DHT22;69649;53.712;9.680;2024-01-30T02:05:41;5.00;74.30
7876;DHT22;69649;53.712;9.680;2024-01-30T02:08:08;5.00;74.00
7876;DHT22;69649;53.712;9.680;2024-01-30T02:10:34;5.00;73.50
7876;DHT22;69649;53.712;9.680;2024-01-30T02:12:59;5.00;73.40
7876;DHT22;69649;53.712;9.680;2024-01-30T02:15:25;5.00;73.60
7876;DHT22;69649;53.712;9.680;2024-01-30T02:17:51;5.00;73.30
7876;DHT22;69649;53.712;9.680;2024-01-30T02:20:17;5.10;73.10
7876;DHT22;69649;53.712;9.680;2024-01-30T02:22:43;5.10;72.70
7876;DHT22;69649;53.712;9.680;2024-01-30T02:25:09;5.10;72.50
7876;DHT22;69649;53.712;9.680;2024-01-30T02:27:35;5.00;72.50
7876;DHT22;69649;53.712;9.680;2024-01-30T02:30:00;5.00;72.90
7876;DHT22;69649;53.712;9.680;2024-01-30T02:32:26;5.00;72.70
7876;DHT22;69649;53.712;9.680;2024-01-30T02:34:52;5.00;72.50
7876;DHT22;69649;53.712;9.680;2024-01-30T02:37:18;5.00;72.30
7876;DHT22;69649;53.712;9.680;2024-01-30T02:39:43;4.90;72.20
7876;DHT22;69649;53.712;9.680;2024-01-30T02:42:09;4.80;72.60
7876;DHT22;69649;53.712;9.680;2024-01-30T02:44:55;4.70;72.90
7876;DHT22;69649;53.712;9.680;2024-01-30T02:47:20;4.80;72.80
7876;DHT22;69649;53.712;9.680;2024-01-30T02:49:46;4.80;72.60
7876;DHT22;69649;53.712;9.680;2024-01-30T02:52:12;4.90;72.70
7876;DHT22;69649;53.712;9.680;2024-01-30T02:54:38;4.90;72.50
7876;DHT22;69649;53.712;9.680;2024-01-30T02:57:03;4.90;72.40
7876;DHT22;69649;53.712;9.680;2024-01-30T02:59:29;4.90;72.30
7876;DHT22;69649;53.712;9.680;2024-01-30T03:01:55;4.70;72.00
7876;DHT22;69649;53.712;9.680;2024-01-30T03:04:21;4.70;72.40
7876;DHT22;69649;53.712;9.680;2024-01-30T03:06:47;4.50;72.70
7876;DHT22;69649;53.712;9.680;2024-01-30T03:09:12;4.50;73.20
7876;DHT22;69649;53.712;9.680;2024-01-30T03:11:39;4.40;73.60
7876;DHT22;69649;53.712;9.680;2024-01-30T03:14:04;4.40;73.40
7876;DHT22;69649;53.712;9.680;2024-01-30T03:16:30;4.40;73.40
7876;DHT22;69649;53.712;9.680;2024-01-30T03:18:56;4.40;73.40
7876;DHT22;69649;53.712;9.680;2024-01-30T03:21:21;4.30;73.70
7876;DHT22;69649;53.712;9.680;2024-01-30T03:23:47;4.20;73.90
7876;DHT22;69649;53.712;9.680;2024-01-30T03:26:13;4.10;74.40
7876;DHT22;69649;53.712;9.680;2024-01-30T03:28:40;4.10;74.30
7876;DHT22;69649;53.712;9.680;2024-01-30T03:31:06;4.10;74.40
7876;DHT22;69649;53.712;9.680;2024-01-30T03:33:32;4.00;74.30
7876;DHT22;69649;53.712;9.680;2024-01-30T03:36:02;3.90;74.90
7876;DHT22;69649;53.712;9.680;2024-01-30T03:38:27;3.90;75.00
7876;DHT22;69649;53.712;9.680;2024-01-30T03:40:53;3.90;75.20
7876;DHT22;69649;53.712;9.680;2024-01-30T03:43:19;3.90;75.20
7876;DHT22;69649;53.712;9.680;2024-01-30T03:45:45;3.90;75.20
7876;DHT22;69649;53.712;9.680;2024-01-30T03:48:10;3.90;75.70
7876;DHT22;69649;53.712;9.680;2024-01-30T03:50:36;3.90;75.40
7876;DHT22;69649;53.712;9.680;2024-01-30T03:53:02;3.90;75.30
7876;DHT22;69649;53.712;9.680;2024-01-30T03:55:28;3.90;75.10
7876;DHT22;69649;53.712;9.680;2024-01-30T03:57:54;3.90;74.90
7876;DHT22;69649;53.712;9.680;2024-01-30T04:00:19;4.00;74.70
7876;DHT22;69649;53.712;9.680;2024-01-30T04:02:45;4.10;74.60
7876;DHT22;69649;53.712;9.680;2024-01-30T04:05:11;4.00;74.20
7876;DHT22;69649;53.712;9.680;2024-01-30T04:07:37;3.90;74.30
7876;DHT22;69649;53.712;9.680;2024-01-30T04:10:05;3.90;74.40
7876;DHT22;69649;53.712;9.680;2024-01-30T04:12:31;3.90;74.60
7876;DHT22;69649;53.712;9.680;2024-01-30T04:14:57;3.90;74.40
7876;DHT22;69649;53.712;9.680;2024-01-30T04:17:23;3.90;74.30
7876;DHT22;69649;53.712;9.680;2024-01-30T04:19:48;3.90;74.30
7876;DHT22;69649;53.712;9.680;2024-01-30T04:22:14;3.90;74.10
7876;DHT22;69649;53.712;9.680;2024-01-30T04:24:40;3.90;74.00
7876;DHT22;69649;53.712;9.680;2024-01-30T04:27:06;4.00;74.10
7876;DHT22;69649;53.712;9.680;2024-01-30T04:29:31;4.00;74.00
7876;DHT22;69649;53.712;9.680;2024-01-30T04:31:58;3.90;73.50
7876;DHT22;69649;53.712;9.680;2024-01-30T04:34:24;3.90;73.50
7876;DHT22;69649;53.712;9.680;2024-01-30T04:36:49;3.90;73.50
7876;DHT22;69649;53.712;9.680;2024-01-30T04:39:15;3.90;73.40
7876;DHT22;69649;53.712;9.680;2024-01-30T04:41:41;3.90;73.20
7876;DHT22;69649;53.712;9.680;2024-01-30T04:44:07;3.90;72.90
7876;DHT22;69649;53.712;9.680;2024-01-30T04:46:33;3.90;73.10
7876;DHT22;69649;53.712;9.680;2024-01-30T04:49:00;3.80;72.90
7876;DHT22;69649;53.712;9.680;2024-01-30T04:51:45;3.70;73.20
7876;DHT22;69649;53.712;9.680;2024-01-30T04:54:11;3.70;73.20
7876;DHT22;69649;53.712;9.680;2024-01-30T04:56:36;3.60;73.20
7876;DHT22;69649;53.712;9.680;2024-01-30T04:59:03;3.60;73.10
7876;DHT22;69649;53.712;9.680;2024-01-30T05:01:29;3.60;73.20
7876;DHT22;69649;53.712;9.680;2024-01-30T05:03:55;3.50;73.60
7876;DHT22;69649;53.712;9.680;2024-01-30T05:09:11;3.50;74.80
7876;DHT22;69649;53.712;9.680;2024-01-30T05:11:40;3.40;75.20
7876;DHT22;69649;53.712;9.680;2024-01-30T05:14:06;3.40;75.30
7876;DHT22;69649;53.712;9.680;2024-01-30T05:16:32;3.40;74.80
7876;DHT22;69649;53.712;9.680;2024-01-30T05:18:58;3.50;75.00
7876;DHT22;69649;53.712;9.680;2024-01-30T05:21:24;3.50;75.70
7876;DHT22;69649;53.712;9.680;2024-01-30T05:23:50;3.50;75.80
7876;DHT22;69649;53.712;9.680;2024-01-30T05:26:17;3.50;76.50
7876;DHT22;69649;53.712;9.680;2024-01-30T05:28:43;3.50;76.70
7876;DHT22;69649;53.712;9.680;2024-01-30T05:31:12;3.50;76.50
7876;DHT22;69649;53.712;9.680;2024-01-30T05:33:37;3.50;76.50
7876;DHT22;69649;53.712;9.680;2024-01-30T05:36:04;3.50;76.60
7876;DHT22;69649;53.712;9.680;2024-01-30T05:38:30;3.50;77.10
7876;DHT22;69649;53.712;9.680;2024-01-30T05:40:58;3.50;77.40
7876;DHT22;69649;53.712;9.680;2024-01-30T05:43:25;3.50;77.10
7876;DHT22;69649;53.712;9.680;2024-01-30T05:45:51;3.50;77.20
7876;DHT22;69649;53.712;9.680;2024-01-30T05:48:18;3.60;77.00
7876;DHT22;69649;53.712;9.680;2024-01-30T05:50:44;3.60;76.90
7876;DHT22;69649;53.712;9.680;2024-01-30T05:53:11;3.50;77.40
7876;DHT22;69649;53.712;9.680;2024-01-30T05:55:56;3.50;77.40
7876;DHT22;69649;53.712;9.680;2024-01-30T05:58:22;3.50;77.90
7876;DHT22;69649;53.712;9.680;2024-01-30T06:00:50;3.60;78.10
7876;DHT22;69649;53.712;9.680;2024-01-30T06:03:15;3.60;78.00
7876;DHT22;69649;53.712;9.680;2024-01-30T06:05:41;3.50;78.30
7876;DHT22;69649;53.712;9.680;2024-01-30T06:08:07;3.50;78.50
7876;DHT22;69649;53.712;9.680;2024-01-30T06:10:32;3.50;78.40
7876;DHT22;69649;53.712;9.680;2024-01-30T06:12:58;3.50;78.90
7876;DHT22;69649;53.712;9.680;2024-01-30T06:15:24;3.50;79.00
7876;DHT22;69649;53.712;9.680;2024-01-30T06:17:50;3.50;79.30
7876;DHT22;69649;53.712;9.680;2024-01-30T06:20:16;4.10;81.00
7876;DHT22;69649;53.712;9.680;2024-01-30T06:22:41;4.70;81.50
7876;DHT22;69649;53.712;9.680;2024-01-30T06:25:07;5.00;81.70
7876;DHT22;69649;53.712;9.680;2024-01-30T06:27:33;4.70;78.60
7876;DHT22;69649;53.712;9.680;2024-01-30T06:29:59;4.50;77.20
7876;DHT22;69649;53.712;9.680;2024-01-30T06:32:25;4.40;77.10
7876;DHT22;69649;53.712;9.680;2024-01-30T06:34:50;4.30;77.10
7876;DHT22;69649;53.712;9.680;2024-01-30T06:37:16;4.30;77.10
7876;DHT22;69649;53.712;9.680;2024-01-30T06:39:42;4.20;76.90
7876;DHT22;69649;53.712;9.680;2024-01-30T06:42:08;4.10;77.40
7876;DHT22;69649;53.712;9.680;2024-01-30T06:44:33;4.00;77.90
7876;DHT22;69649;53.712;9.680;2024-01-30T06:46:59;3.90;78.50
7876;DHT22;69649;53.712;9.680;2024-01-30T06:49:25;4.00;78.60
7876;DHT22;69649;53.712;9.680;2024-01-30T06:51:50;4.00;78.50
7876;DHT22;69649;53.712;9.680;2024-01-30T06:54:16;4.00;78.40
7876;DHT22;69649;53.712;9.680;2024-01-30T06:57:02;4.10;78.20
7876;DHT22;69649;53.712;9.680;2024-01-30T06:59:28;4.20;77.90
7876;DHT22;69649;53.712;9.680;2024-01-30T07:02:02;4.30;77.40
7876;DHT22;69649;53.712;9.680;2024-01-30T07:04:28;4.30;77.00
7876;DHT22;69649;53.712;9.680;2024-01-30T07:06:54;4.40;76.60
7876;DHT22;69649;53.712;9.680;2024-01-30T07:09:20;4.30;76.60
7876;DHT22;69649;53.712;9.680;2024-01-30T07:11:45;4.30;76.80
7876;DHT22;69649;53.712;9.680;2024-01-30T07:14:11;4.20;77.50
7876;DHT22;69649;53.712;9.680;2024-01-30T07:16:37;4.20;78.00
7876;DHT22;69649;53.712;9.680;2024-01-30T07:19:03;4.20;78.30
7876;DHT22;69649;53.712;9.680;2024-01-30T07:21:29;4.20;78.60
7876;DHT22;69649;53.712;9.680;2024-01-30T07:23:55;4.10;78.70
7876;DHT22;69649;53.712;9.680;2024-01-30T07:26:21;4.20;78.80
7876;DHT22;69649;53.712;9.680;2024-01-30T07:28:47;4.20;79.20
7876;DHT22;69649;53.712;9.680;2024-01-30T07:31:13;4.30;79.20
7876;DHT22;69649;53.712;9.680;2024-01-30T07:33:38;4.30;79.30
7876;DHT22;69649;53.712;9.680;2024-01-30T07:36:05;4.30;79.20
7876;DHT22;69649;53.712;9.680;2024-01-30T07:38:33;4.40;79.20
7876;DHT22;69649;53.712;9.680;2024-01-30T07:40:59;4.40;79.20
7876;DHT22;69649;53.712;9.680;2024-01-30T07:43:25;4.50;79.00
7876;DHT22;69649;53.712;9.680;2024-01-30T07:45:51;4.50;78.90
7876;DHT22;69649;53.712;9.680;2024-01-30T07:48:17;4.50;78.90
7876;DHT22;69649;53.712;9.680;2024-01-30T07:50:42;4.50;78.90
7876;DHT22;69649;53.712;9.680;2024-01-30T07:53:08;4.50;79.00
7876;DHT22;69649;53.712;9.680;2024-01-30T07:55:34;4.70;79.00
7876;DHT22;69649;53.712;9.680;2024-01-30T07:58:00;4.70;79.00
7876;DHT22;69649;53.712;9.680;2024-01-30T08:00:26;4.70;79.00
7876;DHT22;69649;53.712;9.680;2024-01-30T08:02:52;4.70;78.70
7876;DHT22;69649;53.712;9.680;2024-01-30T08:05:22;4.80;78.90
7876;DHT22;69649;53.712;9.680;2024-01-30T08:07:49;4.90;78.80
7876;DHT22;69649;53.712;9.680;2024-01-30T08:10:15;4.90;78.70
7876;DHT22;69649;53.712;9.680;2024-01-30T08:12:41;5.00;78.50
7876;DHT22;69649;53.712;9.680;2024-01-30T08:15:07;5.00;78.40
7876;DHT22;69649;53.712;9.680;2024-01-30T08:17:33;5.10;78.00
7876;DHT22;69649;53.712;9.680;2024-01-30T08:19:59;5.30;77.90
7876;DHT22;69649;53.712;9.680;2024-01-30T08:22:25;5.30;78.00
7876;DHT22;69649;53.712;9.680;2024-01-30T08:24:53;5.30;78.00
7876;DHT22;69649;53.712;9.680;2024-01-30T08:27:19;5.40;77.90
7876;DHT22;69649;53.712;9.680;2024-01-30T08:29:45;5.40;77.60
7876;DHT22;69649;53.712;9.680;2024-01-30T08:32:11;5.50;77.60
7876;DHT22;69649;53.712;9.680;2024-01-30T08:34:36;5.50;77.40
7876;DHT22;69649;53.712;9.680;2024-01-30T08:37:03;5.50;77.30
7876;DHT22;69649;53.712;9.680;2024-01-30T08:39:28;5.60;77.20
7876;DHT22;69649;53.712;9.680;2024-01-30T08:41:54;5.60;77.20
7876;DHT22;69649;53.712;9.680;2024-01-30T08:44:20;5.80;76.90
7876;DHT22;69649;53.712;9.680;2024-01-30T08:46:48;5.80;76.80
7876;DHT22;69649;53.712;9.680;2024-01-30T08:49:17;5.80;76.90
7876;DHT22;69649;53.712;9.680;2024-01-30T08:51:43;6.00;76.60
7876;DHT22;69649;53.712;9.680;2024-01-30T08:54:08;6.00;76.50
7876;DHT22;69649;53.712;9.680;2024-01-30T08:56:34;6.00;76.40
7876;DHT22;69649;53.712;9.680;2024-01-30T08:59:00;6.10;76.30
7876;DHT22;69649;53.712;9.680;2024-01-30T09:01:25;6.10;76.10
7876;DHT22;69649;53.712;9.680;2024-01-30T09:03:52;6.20;76.00
7876;DHT22;69649;53.712;9.680;2024-01-30T09:06:18;6.30;75.80
7876;DHT22;69649;53.712;9.680;2024-01-30T09:08:43;6.40;75.60
7876;DHT22;69649;53.712;9.680;2024-01-30T09:11:13;6.60;75.50
7876;DHT22;69649;53.712;9.680;2024-01-30T09:14:00;6.60;74.90
7876;DHT22;69649;53.712;9.680;2024-01-30T09:16:26;6.70;74.70
7876;DHT22;69649;53.712;9.680;2024-01-30T09:18:52;6.80;74.60
7876;DHT22;69649;53.712;9.680;2024-01-30T09:21:18;6.90;74.30
7876;DHT22;69649;53.712;9.680;2024-01-30T09:23:43;6.90;74.00
7876;DHT22;69649;53.712;9.680;2024-01-30T09:26:09;6.90;73.90
7876;DHT22;69649;53.712;9.680;2024-01-30T09:28:35;7.00;73.80
7876;DHT22;69649;53.712;9.680;2024-01-30T09:31:01;7.00;73.60
7876;DHT22;69649;53.712;9.680;2024-01-30T09:33:28;7.10;73.20
7876;DHT22;69649;53.712;9.680;2024-01-30T09:35:54;7.20;73.30
7876;DHT22;69649;53.712;9.680;2024-01-30T09:38:19;7.20;73.00
7876;DHT22;69649;53.712;9.680;2024-01-30T09:40:50;7.20;73.00
7876;DHT22;69649;53.712;9.680;2024-01-30T09:43:17;7.20;73.20
7876;DHT22;69649;53.712;9.680;2024-01-30T09:45:46;7.20;72.80
7876;DHT22;69649;53.712;9.680;2024-01-30T09:48:13;7.20;72.80
7876;DHT22;69649;53.712;9.680;2024-01-30T09:50:40;7.30;72.90
7876;DHT22;69649;53.712;9.680;2024-01-30T09:53:08;7.40;72.60
7876;DHT22;69649;53.712;9.680;2024-01-30T09:55:35;7.40;72.60
7876;DHT22;69649;53.712;9.680;2024-01-30T09:58:02;7.50;72.60
7876;DHT22;69649;53.712;9.680;2024-01-30T10:00:27;7.60;72.10
7876;DHT22;69649;53.712;9.680;2024-01-30T10:02:53;7.60;72.00
7876;DHT22;69649;53.712;9.680;2024-01-30T10:05:19;7.80;71.80
7876;DHT22;69649;53.712;9.680;2024-01-30T10:07:56;7.80;71.80
7876;DHT22;69649;53.712;9.680;2024-01-30T10:10:23;7.80;71.60
7876;DHT22;69649;53.712;9.680;2024-01-30T10:12:51;8.00;71.60
7876;DHT22;69649;53.712;9.680;2024-01-30T10:15:18;8.00;71.30
7876;DHT22;69649;53.712;9.680;2024-01-30T10:17:45;8.00;71.10
7876;DHT22;69649;53.712;9.680;2024-01-30T10:20:12;8.00;70.90
7876;DHT22;69649;53.712;9.680;2024-01-30T10:22:40;8.00;71.10
7876;DHT22;69649;53.712;9.680;2024-01-30T10:25:06;8.00;71.10
7876;DHT22;69649;53.712;9.680;2024-01-30T10:27:33;8.10;70.90
7876;DHT22;69649;53.712;9.680;2024-01-30T10:29:59;8.10;70.80
7876;DHT22;69649;53.712;9.680;2024-01-30T10:32:25;8.20;70.60
7876;DHT22;69649;53.712;9.680;2024-01-30T10:34:51;8.30;70.50
7876;DHT22;69649;53.712;9.680;2024-01-30T10:37:18;8.20;70.50
7876;DHT22;69649;53.712;9.680;2024-01-30T10:39:45;8.20;70.80
7876;DHT22;69649;53.712;9.680;2024-01-30T10:42:13;8.30;70.70
7876;DHT22;69649;53.712;9.680;2024-01-30T10:47:12;8.40;70.30
7876;DHT22;69649;53.712;9.680;2024-01-30T10:49:41;8.40;70.30
7876;DHT22;69649;53.712;9.680;2024-01-30T10:52:09;8.40;70.40
7876;DHT22;69649;53.712;9.680;2024-01-30T10:54:36;8.40;70.50
7876;DHT22;69649;53.712;9.680;2024-01-30T10:57:04;8.50;70.50
7876;DHT22;69649;53.712;9.680;2024-01-30T10:59:32;8.60;70.30
7876;DHT22;69649;53.712;9.680;2024-01-30T11:01:59;8.60;70.10
7876;DHT22;69649;53.712;9.680;2024-01-30T11:04:25;8.60;70.00
7876;DHT22;69649;53.712;9.680;2024-01-30T11:06:51;8.60;70.10
7876;DHT22;69649;53.712;9.680;2024-01-30T11:09:18;8.70;70.20
7876;DHT22;69649;53.712;9.680;2024-01-30T11:11:49;8.60;70.00
7876;DHT22;69649;53.712;9.680;2024-01-30T11:14:16;8.60;70.30
7876;DHT22;69649;53.712;9.680;2024-01-30T11:16:42;8.80;70.20
7876;DHT22;69649;53.712;9.680;2024-01-30T11:19:11;8.80;70.00
7876;DHT22;69649;53.712;9.680;2024-01-30T11:21:42;8.80;70.40
7876;DHT22;69649;53.712;9.680;2024-01-30T11:24:09;8.70;70.30
7876;DHT22;69649;53.712;9.680;2024-01-30T11:26:35;8.80;70.30
7876;DHT22;69649;53.712;9.680;2024-01-30T11:29:07;8.80;70.20
7876;DHT22;69649;53.712;9.680;2024-01-30T11:31:31;8.80;70.30
7876;DHT22;69649;53.712;9.680;2024-01-30T11:33:57;8.80;70.30
7876;DHT22;69649;53.712;9.680;2024-01-30T11:36:26;8.70;70.50
7876;DHT22;69649;53.712;9.680;2024-01-30T11:38:54;8.80;70.70
7876;DHT22;69649;53.712;9.680;2024-01-30T11:41:20;8.70;70.90
7876;DHT22;69649;53.712;9.680;2024-01-30T11:43:53;8.80;70.90
7876;DHT22;69649;53.712;9.680;2024-01-30T11:46:19;8.80;70.80
7876;DHT22;69649;53.712;9.680;2024-01-30T11:48:45;8.80;70.70
7876;DHT22;69649;53.712;9.680;2024-01-30T11:51:13;8.80;71.00
7876;DHT22;69649;53.712;9.680;2024-01-30T11:53:39;8.80;71.10
7876;DHT22;69649;53.712;9.680;2024-01-30T11:56:06;9.00;70.90
7876;DHT22;69649;53.712;9.680;2024-01-30T11:58:35;8.90;70.70
7876;DHT22;69649;53.712;9.680;2024-01-30T12:01:01;8.90;71.00
7876;DHT22;69649;53.712;9.680;2024-01-30T12:03:26;8.80;71.10
7876;DHT22;69649;53.712;9.680;2024-01-30T12:05:57;8.90;71.10
7876;DHT22;69649;53.712;9.680;2024-01-30T12:08:27;8.90;71.00
7876;DHT22;69649;53.712;9.680;2024-01-30T12:10:57;9.00;71.10
7876;DHT22;69649;53.712;9.680;2024-01-30T12:13:28;9.00;71.00
7876;DHT22;69649;53.712;9.680;2024-01-30T12:15:55;9.00;71.00
7876;DHT22;69649;53.712;9.680;2024-01-30T12:18:21;9.00;71.10
7876;DHT22;69649;53.712;9.680;2024-01-30T12:20:58;9.00;71.10
7876;DHT22;69649;53.712;9.680;2024-01-30T12:23:24;8.90;71.10
7876;DHT22;69649;53.712;9.680;2024-01-30T12:25:51;9.00;71.30
7876;DHT22;69649;53.712;9.680;2024-01-30T12:28:17;9.00;71.20
7876;DHT22;69649;53.712;9.680;2024-01-30T12:30:43;9.00;71.20
7876;DHT22;69649;53.712;9.680;2024-01-30T12:33:09;9.10;71.30
7876;DHT22;69649;53.712;9.680;2024-01-30T12:35:35;9.00;70.90
7876;DHT22;69649;53.712;9.680;2024-01-30T12:38:04;9.10;71.00
7876;DHT22;69649;53.712;9.680;2024-01-30T12:40:33;9.20;71.10
7876;DHT22;69649;53.712;9.680;2024-01-30T12:42:59;9.20;70.90
7876;DHT22;69649;53.712;9.680;2024-01-30T12:45:25;9.20;71.10
7876;DHT22;69649;53.712;9.680;2024-01-30T12:47:50;9.20;71.20
7876;DHT22;69649;53.712;9.680;2024-01-30T12:50:17;9.10;71.40
7876;DHT22;69649;53.712;9.680;2024-01-30T12:52:43;9.10;71.50
7876;DHT22;69649;53.712;9.680;2024-01-30T12:55:11;9.20;71.40
7876;DHT22;69649;53.712;9.680;2024-01-30T12:57:38;9.20;71.30
7876;DHT22;69649;53.712;9.680;2024-01-30T13:00:06;9.20;71.40
7876;DHT22;69649;53.712;9.680;2024-01-30T13:02:34;9.20;71.40
7876;DHT22;69649;53.712;9.680;2024-01-30T13:05:03;9.20;71.60
7876;DHT22;69649;53.712;9.680;2024-01-30T13:07:29;9.20;71.60
7876;DHT22;69649;53.712;9.680;2024-01-30T13:09:56;9.20;71.70
7876;DHT22;69649;53.712;9.680;2024-01-30T13:12:24;9.20;71.70
7876;DHT22;69649;53.712;9.680;2024-01-30T13:14:50;9.20;71.80
7876;DHT22;69649;53.712;9.680;2024-01-30T13:17:16;9.20;71.90
7876;DHT22;69649;53.712;9.680;2024-01-30T13:19:41;9.20;72.00
7876;DHT22;69649;53.712;9.680;2024-01-30T13:22:07;9.20;72.00
7876;DHT22;69649;53.712;9.680;2024-01-30T13:24:33;9.20;72.20
7876;DHT22;69649;53.712;9.680;2024-01-30T13:26:58;9.20;72.20
7876;DHT22;69649;53.712;9.680;2024-01-30T13:29:24;9.20;72.20
7876;DHT22;69649;53.712;9.680;2024-01-30T13:31:50;9.20;72.30
7876;DHT22;69649;53.712;9.680;2024-01-30T13:34:16;9.20;72.40
7876;DHT22;69649;53.712;9.680;2024-01-30T13:36:42;9.30;72.20
7876;DHT22;69649;53.712;9.680;2024-01-30T13:39:08;9.30;72.10
7876;DHT22;69649;53.712;9.680;2024-01-30T13:41:36;9.30;72.10
7876;DHT22;69649;53.712;9.680;2024-01-30T13:44:03;9.20;72.20
7876;DHT22;69649;53.712;9.680;2024-01-30T13:46:48;9.30;72.20
7876;DHT22;69649;53.712;9.680;2024-01-30T13:49:14;9.30;72.30
7876;DHT22;69649;53.712;9.680;2024-01-30T13:51:40;9.30;72.40
7876;DHT22;69649;53.712;9.680;2024-01-30T13:54:06;9.30;72.40
7876;DHT22;69649;53.712;9.680;2024-01-30T13:56:32;9.20;72.60
7876;DHT22;69649;53.712;9.680;2024-01-30T13:58:57;9.20;72.80
7876;DHT22;69649;53.712;9.680;2024-01-30T14:01:23;9.20;73.00
7876;DHT22;69649;53.712;9.680;2024-01-30T14:03:49;9.20;72.80
7876;DHT22;69649;53.712;9.680;2024-01-30T14:06:15;9.20;72.90
7876;DHT22;69649;53.712;9.680;2024-01-30T14:08:41;9.20;73.10
7876;DHT22;69649;53.712;9.680;2024-01-30T14:11:07;9.20;72.90
7876;DHT22;69649;53.712;9.680;2024-01-30T14:13:32;9.20;73.00
7876;DHT22;69649;53.712;9.680;2024-01-30T14:15:58;9.20;73.00
7876;DHT22;69649;53.712;9.680;2024-01-30T14:18:24;9.20;73.00
7876;DHT22;69649;53.712;9.680;2024-01-30T14:20:51;9.20;73.20
7876;DHT22;69649;53.712;9.680;2024-01-30T14:23:17;9.30;73.20
7876;DHT22;69649;53.712;9.680;2024-01-30T14:25:44;9.20;73.20
7876;DHT22;69649;53.712;9.680;2024-01-30T14:28:10;9.30;73.20
7876;DHT22;69649;53.712;9.680;2024-01-30T14:30:35;9.40;73.00
7876;DHT22;69649;53.712;9.680;2024-01-30T14:33:02;9.40;73.00
7876;DHT22;69649;53.712;9.680;2024-01-30T14:35:27;9.40;73.10
7876;DHT22;69649;53.712;9.680;2024-01-30T14:37:53;9.30;73.20
7876;DHT22;69649;53.712;9.680;2024-01-30T14:40:19;9.40;73.10
7876;DHT22;69649;53.712;9.680;2024-01-30T14:42:45;9.40;72.90
7876;DHT22;69649;53.712;9.680;2024-01-30T14:45:11;9.50;72.80
7876;DHT22;69649;53.712;9.680;2024-01-30T14:47:37;9.40;72.80
7876;DHT22;69649;53.712;9.680;2024-01-30T14:50:04;9.40;73.10
7876;DHT22;69649;53.712;9.680;2024-01-30T14:52:31;9.40;73.10
7876;DHT22;69649;53.712;9.680;2024-01-30T14:54:57;9.40;73.20
7876;DHT22;69649;53.712;9.680;2024-01-30T14:57:24;9.40;73.10
7876;DHT22;69649;53.712;9.680;2024-01-30T14:59:50;9.40;73.20
7876;DHT22;69649;53.712;9.680;2024-01-30T15:02:16;9.40;73.10
7876;DHT22;69649;53.712;9.680;2024-01-30T15:04:42;9.20;73.50
7876;DHT22;69649;53.712;9.680;2024-01-30T15:07:08;9.20;73.60
7876;DHT22;69649;53.712;9.680;2024-01-30T15:09:34;9.20;73.60
7876;DHT22;69649;53.712;9.680;2024-01-30T15:12:00;9.20;73.70
7876;DHT22;69649;53.712;9.680;2024-01-30T15:14:25;9.20;73.70
7876;DHT22;69649;53.712;9.680;2024-01-30T15:16:51;9.20;73.90
7876;DHT22;69649;53.712;9.680;2024-01-30T15:19:17;9.20;74.00
7876;DHT22;69649;53.712;9.680;2024-01-30T15:21:43;9.20;74.00
7876;DHT22;69649;53.712;9.680;2024-01-30T15:24:09;9.20;74.20
7876;DHT22;69649;53.712;9.680;2024-01-30T15:26:36;9.30;74.00
7876;DHT22;69649;53.712;9.680;2024-01-30T15:29:02;9.30;73.90
7876;DHT22;69649;53.712;9.680;2024-01-30T15:31:28;9.30;74.00
7876;DHT22;69649;53.712;9.680;2024-01-30T15:33:54;9.30;74.00
7876;DHT22;69649;53.712;9.680;2024-01-30T15:36:22;9.40;74.00
7876;DHT22;69649;53.712;9.680;2024-01-30T15:38:48;9.40;73.90
7876;DHT22;69649;53.712;9.680;2024-01-30T15:41:14;9.40;73.90
7876;DHT22;69649;53.712;9.680;2024-01-30T15:43:39;9.40;73.90
7876;DHT22;69649;53.712;9.680;2024-01-30T15:46:06;9.20;74.30
7876;DHT22;69649;53.712;9.680;2024-01-30T15:48:31;9.30;74.30
7876;DHT22;69649;53.712;9.680;2024-01-30T15:50:57;9.20;74.50
7876;DHT22;69649;53.712;9.680;2024-01-30T15:53:23;9.20;74.60
7876;DHT22;69649;53.712;9.680;2024-01-30T15:55:51;9.40;74.30
7876;DHT22;69649;53.712;9.680;2024-01-30T15:58:16;9.30;74.40
7876;DHT22;69649;53.712;9.680;2024-01-30T16:00:42;9.20;74.50
7876;DHT22;69649;53.712;9.680;2024-01-30T16:03:08;9.20;74.60